Time;durP1;ratioP1;P1;durP2;ratioP2;P2;SDS_P1;SDS_P2;PMS_P1;PMS_P2;Temp;Humidity;BMP_temperature;BMP_pressure;BME280_temperature;BME280_humidity;BME280_pressure;Samples;Min_cycle;Max_cycle;Signal;HPM_P1;HPM_P2
2022/02/03 00:04:37;;;;;;;;;5.00;5.00;;;;;5.09;73.51;99424.41;6334789;20;1823161;-43
2022/02/03 00:07:11;;;;;;;;;5.00;5.00;;;;;5.04;73.73;99425.44;6317028;20;2749511;-43
2022/02/03 00:24:20;;;;;;;;;5.00;4.50;;;;;4.99;74.41;99458.50;6335166;20;1823373;-42
2022/02/03 00:27:11;;;;;;;;;7.00;4.50;;;;;5.02;74.67;99469.88;6334816;20;1817014;-43
2022/02/03 00:30:02;;;;;;;;;3.00;3.00;;;;;4.84;74.58;99476.84;6319218;20;3443998;-42
2022/02/03 00:51:19;;;;;;;;;5.00;5.00;;;;;4.84;75.41;99513.19;6316163;20;2744016;-43
2022/02/03 00:53:48;;;;;;;;;7.67;5.33;;;;;4.95;74.58;99526.94;6312800;20;3468049;-42
2022/02/03 00:56:24;;;;;;;;;7.67;6.00;;;;;4.85;74.84;99538.88;6309146;20;1820093;-44
2022/02/03 00:59:09;;;;;;;;;3.00;3.00;;;;;4.82;74.76;99537.22;6335453;20;1812818;-43
2022/02/03 01:01:49;;;;;;;;;6.00;3.50;;;;;4.90;74.59;99536.91;6334209;20;1825345;-43
2022/02/03 01:04:18;;;;;;;;;2.00;2.00;;;;;4.81;74.27;99530.16;6331824;20;1820088;-44
2022/02/03 01:06:53;;;;;;;;;3.00;3.00;;;;;4.66;75.23;99537.88;6315519;20;2738892;-42
2022/02/03 01:09:32;;;;;;;;;3.00;1.00;;;;;4.70;75.08;99547.47;6317757;20;3451295;-43
2022/02/03 01:20:30;;;;;;;;;5.75;4.50;;;;;4.56;75.19;99546.22;6332434;20;1814976;-44
2022/02/03 01:45:15;;;;;;;;;7.25;3.50;;;;;4.26;76.67;99563.34;6303923;20;1817094;-43
2022/02/03 01:52:52;;;;;;;;;4.00;1.00;;;;;4.13;77.11;99569.16;6321767;20;3441014;-43
2022/02/03 01:55:26;;;;;;;;;2.33;2.00;;;;;4.12;77.06;99572.72;6319405;20;3460666;-42
2022/02/03 01:58:13;;;;;;;;;1.67;1.00;;;;;4.12;76.69;99580.69;6291450;20;3435651;-43
2022/02/03 02:01:00;;;;;;;;;1.75;1.75;;;;;4.23;78.48;99590.03;6337945;20;1823243;-43
2022/02/03 02:04:08;;;;;;;;;2.00;2.00;;;;;3.92;77.69;99585.84;6333857;20;1822239;-43
2022/02/03 02:07:34;;;;;;;;;2.00;2.00;;;;;3.98;77.12;99593.63;6318062;20;3462739;-42
2022/02/03 02:11:04;;;;;;;;;0.00;0.00;;;;;4.29;77.48;99595.13;6321856;20;3439850;-43
2022/02/03 02:43:30;;;;;;;;;1.00;1.00;;;;;3.75;76.60;99631.59;6319688;20;3446125;-43
2022/02/03 02:46:28;;;;;;;;;2.67;0.00;;;;;3.79;76.58;99627.03;6318597;20;3437831;-42
2022/02/03 02:49:39;;;;;;;;;4.75;2.00;;;;;3.83;76.42;99634.00;6335584;20;1823286;-43
2022/02/03 02:52:21;;;;;;;;;4.25;3.50;;;;;3.81;76.19;99655.28;6335999;20;1825340;-43
2022/02/03 03:29:15;;;;;;;;;1.00;1.00;;;;;3.65;73.57;99678.81;6321042;20;3444027;-42
2022/02/03 03:37:25;;;;;;;;;1.67;1.00;;;;;3.32;74.05;99679.94;6316681;20;3449209;-43
2022/02/03 03:40:01;;;;;;;;;2.00;1.00;;;;;3.06;74.68;99693.13;6319867;20;3441303;-43
2022/02/03 03:42:40;;;;;;;;;1.00;1.00;;;;;3.34;74.17;99696.66;6320701;20;2727411;-43
2022/02/03 03:45:10;;;;;;;;;1.33;1.33;;;;;3.29;74.27;99702.13;6315497;20;3449194;-43
2022/02/03 03:47:41;;;;;;;;;1.33;1.33;;;;;3.28;74.06;99697.75;6319666;20;3446157;-43
2022/02/03 03:50:16;;;;;;;;;2.33;2.00;;;;;3.41;74.08;99706.19;6317146;20;3454528;-43
2022/02/03 03:52:58;;;;;;;;;1.00;1.00;;;;;3.30;73.94;99710.03;6318690;20;3435748;-45
2022/02/03 03:55:54;;;;;;;;;2.00;2.00;;;;;3.40;73.64;99718.59;6321699;20;3330433;-43
2022/02/03 05:06:27;;;;;;;;;1.00;1.00;;;;;3.22;66.67;99823.50;6312011;20;3448292;-41
2022/02/03 05:13:26;;;;;;;;;0.00;0.00;;;;;3.51;65.74;99843.00;6314790;20;3432598;-41
2022/02/03 05:23:36;;;;;;;;;0.00;0.00;;;;;3.45;64.22;99854.69;6319175;20;3435760;-41
2022/02/03 05:43:35;;;;;;;;;2.33;1.00;;;;;3.28;64.90;99887.00;6315371;20;3441933;-41
2022/02/03 05:46:47;;;;;;;;;2.00;1.00;;;;;3.30;65.03;99889.63;6317243;20;3452324;-41
2022/02/03 05:52:08;;;;;;;;;1.00;1.00;;;;;3.38;64.68;99913.28;6320932;20;3438824;-41
2022/02/03 06:13:54;;;;;;;;;6.00;2.00;;;;;3.20;66.22;99894.31;6313760;20;3457662;-41
2022/02/03 06:22:20;;;;;;;;;2.00;1.00;;;;;3.44;66.90;99905.13;6319070;20;3432562;-43
2022/02/03 06:27:24;;;;;;;;;5.00;3.33;;;;;3.18;65.48;99906.75;6313499;20;3464799;-41
2022/02/03 06:27:55;;;;;;;;;3.75;1.25;;;;;3.60;66.30;99902.91;6333818;20;1815913;-44
2022/02/03 06:30:22;;;;;;;;;7.67;4.00;;;;;3.34;65.62;99908.97;6312652;20;3458618;-41
2022/02/03 06:32:50;;;;;;;;;2.00;2.00;;;;;3.36;66.07;99913.31;6316233;20;3445078;-42
2022/02/03 06:35:19;;;;;;;;;6.00;2.00;;;;;3.41;67.27;99918.50;6331559;20;1825331;-41
2022/02/03 06:37:49;;;;;;;;;2.50;2.00;;;;;3.36;65.80;99923.06;6333886;20;1821756;-42
2022/02/03 06:40:18;;;;;;;;;4.00;1.00;;;;;3.51;64.83;99933.25;6317697;20;3432557;-43
2022/02/03 06:42:46;;;;;;;;;1.00;1.00;;;;;4.23;64.97;99936.38;6315983;20;3451276;-42
2022/02/03 06:48:16;;;;;;;;;5.00;3.33;;;;;4.52;62.46;99948.72;6313101;20;3449566;-42
2022/02/03 06:50:49;;;;;;;;;0.00;0.00;;;;;4.42;62.00;99949.09;6317922;20;3442055;-43
2022/02/03 06:53:22;;;;;;;;;1.67;1.00;;;;;4.94;60.77;99960.66;6317850;20;3434688;-42
2022/02/03 07:01:06;;;;;;;;;4.67;1.00;;;;;5.14;60.28;99967.97;6317922;20;3433679;-44
2022/02/03 07:03:39;;;;;;;;;5.67;2.00;;;;;4.89;61.06;99973.25;6313107;20;3469009;-44
2022/02/03 07:06:07;;;;;;;;;3.00;2.00;;;;;5.35;61.89;99977.00;6285413;20;3450271;-43
2022/02/03 07:08:36;;;;;;;;;3.50;3.50;;;;;5.10;60.63;99979.63;6334186;20;1819594;-42
2022/02/03 07:11:10;;;;;;;;;5.00;2.00;;;;;5.67;59.01;99989.13;6315605;20;3470099;-44
2022/02/03 07:13:39;;;;;;;;;3.00;3.00;;;;;6.44;57.46;99991.56;6333104;20;1820126;-42
2022/02/03 07:16:06;;;;;;;;;1.00;1.00;;;;;6.31;57.11;99989.38;6315397;20;3434595;-43
2022/02/03 07:18:35;;;;;;;;;2.25;2.25;;;;;6.10;57.31;100003.53;6331813;20;1817112;-43
2022/02/03 07:21:03;;;;;;;;;8.50;5.00;;;;;6.26;57.92;100004.69;6316350;20;2762856;-42
2022/02/03 07:23:34;;;;;;;;;8.00;4.00;;;;;5.99;57.08;100008.44;6302235;20;1813911;-44
2022/02/03 07:26:02;;;;;;;;;4.33;2.00;;;;;6.31;57.67;100021.38;6313970;20;3442987;-45
2022/02/03 07:28:30;;;;;;;;;5.50;5.00;;;;;6.15;56.86;100018.44;6317204;20;2753394;-42
2022/02/03 07:30:59;;;;;;;;;7.00;5.25;;;;;5.60;57.13;100022.25;6333704;20;1818864;-43
2022/02/03 07:33:31;;;;;;;;;9.75;7.00;;;;;6.14;56.39;100021.19;6333206;20;1819293;-42
2022/02/03 07:36:00;;;;;;;;;6.25;4.50;;;;;5.89;57.46;100018.50;6331324;20;1808671;-43
2022/02/03 07:38:28;;;;;;;;;6.00;4.00;;;;;5.12;58.23;100026.56;6316376;20;2741902;-42
2022/02/03 07:40:56;;;;;;;;;6.00;3.00;;;;;5.54;57.73;100027.78;6331825;20;1812294;-44
2022/02/03 07:43:25;;;;;;;;;4.25;3.00;;;;;5.43;57.45;100031.69;6332810;20;1814856;-44
2022/02/03 07:45:54;;;;;;;;;3.75;2.00;;;;;5.44;57.50;100030.78;6332394;20;1822302;-44
2022/02/03 07:48:21;;;;;;;;;1.67;1.67;;;;;5.64;57.41;100034.53;6319149;20;3450286;-45
2022/02/03 07:50:50;;;;;;;;;1.00;1.00;;;;;5.75;57.31;100050.13;6319015;20;3444379;-42
2022/02/03 07:53:18;;;;;;;;;0.00;0.00;;;;;5.79;56.13;100051.75;6319926;20;3436681;-42
2022/02/03 07:55:47;;;;;;;;;0.00;0.00;;;;;5.94;57.68;100054.75;6313643;20;1801601;-42
2022/02/03 07:59:55;;;;;;;;;3.00;2.00;;;;;5.63;56.75;100048.75;6278137;20;2739829;-43
2022/02/03 08:02:22;;;;;;;;;1.00;1.00;;;;;5.96;56.82;100044.06;6314952;20;3442954;-43
2022/02/03 08:04:51;;;;;;;;;1.33;1.33;;;;;6.00;56.40;100039.47;6346728;20;3436844;-45
2022/02/03 08:07:22;;;;;;;;;3.00;2.00;;;;;5.83;57.71;100048.94;6363685;20;1810743;-43
2022/02/03 08:09:59;;;;;;;;;2.25;2.25;;;;;5.84;57.40;100055.13;6364018;20;1813881;-43
2022/02/03 08:12:32;;;;;;;;;6.50;2.00;;;;;5.65;57.66;100044.25;6362042;20;1823312;-44
2022/02/03 08:15:01;;;;;;;;;4.00;1.33;;;;;5.82;59.54;100052.53;6346607;20;3442962;-52
2022/02/03 08:17:37;;;;;;;;;2.00;2.00;;;;;5.71;57.72;100044.03;6365028;20;1809648;-46
2022/02/03 08:20:16;;;;;;;;;3.25;2.25;;;;;5.25;58.17;100051.84;6362310;20;1819072;-47
2022/02/03 08:22:53;;;;;;;;;5.00;5.00;;;;;5.50;57.71;100041.22;6363851;20;1821195;-45
2022/02/03 08:25:26;;;;;;;;;3.00;2.00;;;;;5.50;56.68;100054.53;6360972;20;1816077;-45
2022/02/03 08:28:27;;;;;;;;;2.00;2.00;;;;;5.77;56.13;100059.81;6362131;20;1822217;-43
2022/02/03 08:31:00;;;;;;;;;1.00;1.00;;;;;6.03;56.10;100066.91;6348345;20;3431645;-44
2022/02/03 08:33:30;;;;;;;;;1.00;1.00;;;;;6.02;55.97;100074.94;6365510;20;1809707;-43
2022/02/03 08:36:02;;;;;;;;;1.00;1.00;;;;;6.33;55.01;100069.34;6310744;20;3434630;-45
2022/02/03 08:41:02;;;;;;;;;3.50;3.50;;;;;6.02;55.01;100082.94;6347396;20;2752344;-43
2022/02/03 08:43:33;;;;;;;;;5.00;3.00;;;;;5.87;55.14;100093.19;6314280;20;2755891;-43
2022/02/03 08:46:07;;;;;;;;;3.00;1.00;;;;;5.89;54.58;100102.00;6365419;20;1820127;-43
2022/02/03 08:48:36;;;;;;;;;2.00;2.00;;;;;5.79;54.70;100105.91;6362925;20;1815930;-44
2022/02/03 08:51:10;;;;;;;;;5.00;5.00;;;;;6.09;54.78;100108.44;6362833;20;1825372;-42
2022/02/03 08:53:52;;;;;;;;;4.00;2.25;;;;;6.10;53.64;100111.03;6363789;20;1810870;-44
2022/02/03 08:59:37;;;;;;;;;7.00;5.00;;;;;6.64;53.87;100108.19;6341493;20;2753482;-43
2022/02/03 10:00:02;;;;;;;;;8.60;8.60;;;;;7.31;47.81;100133.97;6343543;20;2731562;-43
2022/02/03 10:02:32;;;;;;;;;10.00;7.00;;;;;7.59;47.67;100129.22;6319130;20;2754447;-45
2022/02/03 10:05:12;;;;;;;;;4.00;4.00;;;;;7.58;47.21;100134.63;6285853;20;2750293;-45
2022/02/03 10:07:52;;;;;;;;;6.25;6.25;;;;;7.77;47.36;100140.09;6307127;20;1818115;-44
2022/02/03 10:10:41;;;;;;;;;3.00;2.00;;;;;7.56;45.31;100134.72;6317486;20;2746128;-44
2022/02/03 10:13:22;;;;;;;;;13.60;11.80;;;;;7.42;45.44;100139.75;6342887;20;2791956;-45
2022/02/03 10:16:05;;;;;;;;;7.33;7.33;;;;;7.56;45.48;100140.06;6287537;20;3452310;-43
2022/02/03 10:18:35;;;;;;;;;15.00;12.80;;;;;7.92;45.14;100136.72;6338916;20;2789830;-43
2022/02/03 10:21:07;;;;;;;;;1.75;1.50;;;;;7.77;46.31;100138.28;6308720;20;1825487;-43
2022/02/03 10:24:01;;;;;;;;;5.50;5.00;;;;;7.73;45.65;100141.13;6336497;20;1814901;-44
2022/02/03 10:26:41;;;;;;;;;13.00;8.00;;;;;7.82;45.03;100140.72;6318637;20;2754424;-46
2022/02/03 10:29:31;;;;;;;;;2.00;1.67;;;;;7.25;44.99;100138.63;6288937;20;3450655;-44
2022/02/03 10:32:00;;;;;;;;;2.00;2.00;;;;;7.66;44.78;100138.75;6306488;20;1815961;-45
2022/02/03 10:34:32;;;;;;;;;38.00;28.67;;;;;7.85;45.04;100124.59;6318374;20;3612819;-43
2022/02/03 10:40:08;;;;;;;;;2.50;2.50;;;;;8.16;45.08;100123.22;6333671;20;1821113;-43
2022/02/03 10:45:54;;;;;;;;;6.50;2.50;;;;;7.89;44.98;100115.47;6315630;20;2754406;-44
2022/02/03 10:48:20;;;;;;;;;12.00;11.00;;;;;7.80;45.03;100105.19;6285270;20;2801450;-43
2022/02/03 10:51:16;;;;;;;;;27.67;25.83;;;;;8.13;44.75;100109.03;6338778;20;3580447;-44
2022/02/03 11:07:58;;;;;;;;;1.00;1.00;;;;;8.01;42.56;100128.31;6306333;20;1804505;-44
2022/02/03 11:12:52;;;;;;;;;4.00;3.00;;;;;8.09;42.84;100126.16;6304945;20;1824307;-43
2022/02/03 11:15:25;;;;;;;;;14.00;4.00;;;;;8.01;43.16;100122.97;6309399;20;2790874;-44
2022/02/03 11:17:58;;;;;;;;;18.33;12.33;;;;;8.45;42.28;100125.50;6283817;20;3535655;-43
2022/02/03 11:20:32;;;;;;;;;12.00;9.00;;;;;8.30;43.17;100115.47;6316598;20;2766048;-47
2022/02/03 11:47:54;;;;;;;;;4.00;2.25;;;;;8.63;41.81;100115.72;6333172;20;1809792;-42
2022/02/03 12:11:44;;;;;;;;;0.00;0.00;;;;;8.33;41.02;100088.56;6332142;20;1805512;-45
2022/02/03 12:25:22;;;;;;;;;2.25;2.25;;;;;9.07;42.17;100122.59;6327062;20;1807720;-44
2022/02/03 12:28:51;;;;;;;;;4.00;4.00;;;;;8.89;42.70;100127.03;6313666;20;2752379;-45
2022/02/03 12:31:51;;;;;;;;;15.00;7.75;;;;;8.83;42.34;100120.16;6294844;20;1798903;-45
2022/02/03 12:40:03;;;;;;;;;8.00;4.00;;;;;8.65;41.88;100113.00;6311425;20;2753491;-45
2022/02/03 12:42:54;;;;;;;;;8.00;4.00;;;;;8.61;41.91;100109.59;6281705;20;2756971;-43
2022/02/03 12:45:26;;;;;;;;;6.75;2.00;;;;;8.57;42.69;100113.34;6299495;20;1814045;-43
2022/02/03 12:48:03;;;;;;;;;2.00;2.00;;;;;8.34;42.73;100117.03;6334305;20;1805951;-43
2022/02/03 12:50:36;;;;;;;;;3.25;2.00;;;;;8.30;43.27;100110.09;6336890;20;1823360;-44
2022/02/03 12:53:07;;;;;;;;;4.00;2.00;;;;;8.20;43.36;100119.47;6318214;20;2756606;-44
2022/02/03 12:55:42;;;;;;;;;10.29;8.43;;;;;8.75;43.48;100122.31;6328897;20;1797247;-43
2022/02/03 12:58:23;;;;;;;;;6.20;3.20;;;;;8.98;42.92;100124.78;6343291;20;2748310;-44
2022/02/03 13:00:59;;;;;;;;;6.00;6.00;;;;;9.14;43.42;100110.66;6318772;20;2743502;-43
2022/02/03 13:03:38;;;;;;;;;10.20;8.60;;;;;8.90;42.17;100121.59;6307982;20;2748198;-44
2022/02/03 13:06:18;;;;;;;;;3.00;2.00;;;;;8.59;43.21;100122.19;6305714;20;1808795;-44
2022/02/03 13:08:59;;;;;;;;;41.33;34.67;;;;;8.77;43.06;100128.50;6316176;20;2853508;-45
2022/02/03 13:11:46;;;;;;;;;0.00;0.00;;;;;8.97;43.12;100128.38;6336413;20;1802440;-43
2022/02/03 13:14:33;;;;;;;;;2.00;1.00;;;;;8.87;40.74;100134.25;6335238;20;1807608;-42
2022/02/03 13:17:18;;;;;;;;;29.00;18.50;;;;;8.77;41.84;100125.81;6310943;20;2483604;-42
2022/02/03 13:20:13;;;;;;;;;8.50;6.00;;;;;8.94;41.55;100123.19;6293492;20;2026448;-44
2022/02/03 13:25:18;;;;;;;;;10.80;10.60;;;;;8.82;41.01;100117.53;6309810;20;2784634;-44
2022/02/03 13:35:29;;;;;;;;;8.00;6.00;;;;;9.01;41.45;100113.91;6159366;20;3044467;-48
2022/02/03 13:38:04;;;;;;;;;4.00;4.00;;;;;8.49;43.63;100121.72;6334035;20;1823012;-43
2022/02/03 13:40:33;;;;;;;;;11.00;7.50;;;;;9.13;42.81;100107.09;6344561;20;2764839;-46
2022/02/03 13:43:10;;;;;;;;;4.00;2.50;;;;;9.06;40.83;100104.78;6313667;20;2753447;-46
2022/02/03 13:45:44;;;;;;;;;1.00;1.00;;;;;9.25;39.65;100111.00;6313620;20;3446073;-50
2022/02/03 13:48:19;;;;;;;;;2.00;2.00;;;;;9.10;40.55;100111.72;6330278;20;1820253;-48
2022/02/03 13:50:59;;;;;;;;;11.50;7.67;;;;;9.04;41.54;100123.63;6386994;20;1802406;-47
2022/02/03 13:53:41;;;;;;;;;11.25;8.00;;;;;9.01;41.95;100130.00;6333675;20;1812405;-45
2022/02/03 14:21:29;;;;;;;;;3.50;3.50;;;;;8.71;43.19;100096.63;6363083;20;1813897;-46
2022/02/03 14:27:16;;;;;;;;;6.00;4.00;;;;;8.78;43.24;100111.47;6313662;20;2750260;-48
2022/02/03 14:29:49;;;;;;;;;16.00;15.67;;;;;8.73;42.82;100114.34;6310484;20;3541896;-47
2022/02/03 14:32:26;;;;;;;;;12.00;9.00;;;;;8.73;42.90;100118.84;6343978;20;2763905;-47
2022/02/03 14:34:56;;;;;;;;;20.50;17.50;;;;;8.53;43.51;100111.72;6308449;20;2821090;-46
2022/02/03 14:42:40;;;;;;;;;12.50;8.50;;;;;8.83;43.01;100114.81;6307254;20;2756539;-51
2022/02/03 14:45:13;;;;;;;;;8.60;7.00;;;;;8.88;42.96;100118.13;6327760;20;2752606;-48
2022/02/03 14:47:44;;;;;;;;;7.17;6.33;;;;;8.53;42.92;100107.28;6358068;20;1812828;-49
2022/02/03 14:50:13;;;;;;;;;13.00;11.00;;;;;8.63;43.12;100101.47;6287889;20;2766943;-47
2022/02/03 14:58:03;;;;;;;;;9.00;8.00;;;;;8.42;43.30;100101.53;6317033;20;2744038;-45
2022/02/03 15:00:33;;;;;;;;;19.00;12.00;;;;;8.29;44.53;100108.34;6286022;20;2808635;-48
2022/02/03 15:03:03;;;;;;;;;13.80;9.00;;;;;8.60;43.86;100102.50;6309417;20;2765953;-46
2022/02/03 15:05:35;;;;;;;;;22.50;20.00;;;;;8.49;43.77;100096.78;6280143;20;2830511;-45
2022/02/03 15:08:07;;;;;;;;;9.67;8.33;;;;;8.04;44.11;100104.13;6287536;20;3472148;-44
2022/02/03 15:13:15;;;;;;;;;12.00;12.00;;;;;8.31;43.81;100107.34;6285801;20;2789858;-45
2022/02/03 15:15:43;;;;;;;;;14.00;11.00;;;;;8.29;44.08;100109.25;6315190;20;2790940;-45
2022/02/03 15:18:12;;;;;;;;;13.00;12.00;;;;;8.05;44.98;100111.19;6283583;20;2810723;-47
2022/02/03 15:20:42;;;;;;;;;38.00;27.00;;;;;7.81;46.24;100120.28;6284918;20;2866062;-45
2022/02/03 15:23:10;;;;;;;;;20.00;11.33;;;;;7.77;47.09;100129.41;6311951;20;3547164;-46
2022/02/03 15:25:38;;;;;;;;;13.50;12.50;;;;;7.75;47.28;100133.94;6315757;20;2781575;-47
2022/02/03 15:28:07;;;;;;;;;16.00;16.00;;;;;7.61;48.57;100131.81;6284425;20;3554646;-45
2022/02/03 15:30:36;;;;;;;;;16.33;14.00;;;;;7.43;49.20;100133.47;6313219;20;3549211;-45
2022/02/03 15:33:10;;;;;;;;;21.33;20.00;;;;;7.57;49.31;100124.88;6314371;20;3561866;-47
2022/02/03 15:35:41;;;;;;;;;22.50;17.50;;;;;7.41;50.13;100124.66;6283652;20;2656533;-48
2022/02/03 15:38:15;;;;;;;;;19.00;16.67;;;;;6.99;51.01;100117.47;6283415;20;3555472;-48
2022/02/03 15:40:44;;;;;;;;;25.33;18.67;;;;;7.08;50.77;100129.56;6315255;20;3559755;-46
2022/02/03 15:45:56;;;;;;;;;44.00;34.00;;;;;6.91;50.89;100130.25;6283677;20;2881526;-46
2022/02/03 16:00:21;;;;;;;;;75.00;56.67;;;;;6.57;52.67;100112.88;6280647;20;3643957;-44
2022/02/03 16:13:32;;;;;;;;;60.33;48.00;;;;;6.33;53.18;100099.53;6314839;20;3602337;-43
2022/02/03 16:18:51;;;;;;;;;50.00;42.00;;;;;6.25;53.81;100098.09;6313343;20;2864941;-48
2022/02/03 16:40:54;;;;;;;;;68.00;53.00;;;;;5.78;55.06;100092.66;6282287;20;2872187;-44
2022/02/03 16:54:19;;;;;;;;;99.67;79.00;;;;;5.28;56.35;100088.13;6311588;20;3696096;-45
2022/02/03 16:56:53;;;;;;;;;98.67;71.67;;;;;5.47;56.14;100091.91;6281363;20;3678339;-44
2022/02/03 16:59:22;;;;;;;;;94.67;70.33;;;;;5.47;55.91;100088.38;6292787;20;3655595;-45
2022/02/03 17:01:52;;;;;;;;;77.33;58.00;;;;;5.37;56.46;100090.50;6281277;20;3644081;-44
2022/02/03 17:04:22;;;;;;;;;95.00;69.00;;;;;4.91;57.67;100083.16;6310614;20;3672135;-44
2022/02/03 17:06:52;;;;;;;;;86.33;66.00;;;;;4.77;58.97;100080.94;6279593;20;2888979;-44
2022/02/03 17:09:21;;;;;;;;;109.00;88.00;;;;;4.83;58.66;100075.41;6311106;20;3697150;-45
2022/02/03 17:11:51;;;;;;;;;104.67;83.00;;;;;4.66;58.94;100077.72;6277384;20;3685731;-45
2022/02/03 17:14:21;;;;;;;;;90.33;66.00;;;;;4.77;58.84;100078.28;6279170;20;3648219;-44
2022/02/03 17:16:50;;;;;;;;;97.33;73.00;;;;;4.77;58.24;100067.63;6310670;20;3668046;-46
2022/02/03 17:19:22;;;;;;;;;99.67;74.33;;;;;4.55;58.21;100062.97;6279583;20;3666907;-44
2022/02/03 17:21:51;;;;;;;;;95.33;71.33;;;;;4.15;60.43;100076.59;6314076;20;3650244;-44
2022/02/03 17:24:21;;;;;;;;;102.33;77.00;;;;;3.91;61.60;100080.81;6311545;20;3687231;-44
2022/02/03 17:27:07;;;;;;;;;106.25;83.00;;;;;3.13;63.80;100083.72;6281777;20;3703429;-44
2022/02/03 18:06:09;;;;;;;;;73.33;58.67;;;;;2.93;64.80;100076.28;6310397;20;2879609;-45
2022/02/03 18:10:46;;;;;;;;;53.00;44.00;;;;;2.32;66.95;100064.44;6277633;20;2494072;-46
2022/02/03 19:02:39;;;;;;;;;103.33;83.00;;;;;2.24;70.33;100031.94;6282577;20;3685012;-50
2022/02/03 19:24:51;;;;;;;;;90.00;64.67;;;;;1.57;71.55;100023.63;6312814;20;3652750;-44
2022/02/03 19:27:49;;;;;;;;;81.00;63.33;;;;;1.80;70.22;100018.75;6313983;20;2880434;-45
2022/02/03 20:06:19;;;;;;;;;90.00;67.00;;;;;2.54;68.74;100014.47;6311308;20;3660671;-43
2022/02/03 20:11:25;;;;;;;;;90.33;64.67;;;;;2.71;69.47;100006.97;6314112;20;3658679;-44
2022/02/03 20:13:54;;;;;;;;;65.00;48.00;;;;;2.78;68.54;99999.75;6311377;20;2883602;-48
2022/02/03 20:16:24;;;;;;;;;73.33;54.00;;;;;3.06;67.65;100003.44;6279949;20;2873256;-46
2022/02/03 20:18:53;;;;;;;;;70.33;54.33;;;;;3.23;67.26;100005.66;6314458;20;2875351;-45
2022/02/03 20:21:24;;;;;;;;;65.00;51.00;;;;;3.44;66.32;100013.97;6314585;20;2877378;-44
2022/02/03 20:23:53;;;;;;;;;84.67;59.33;;;;;3.45;65.95;100005.06;6282037;20;3661735;-44
2022/02/03 20:26:23;;;;;;;;;82.33;63.33;;;;;3.49;67.36;99999.66;6314857;20;3635747;-45
2022/02/03 20:28:52;;;;;;;;;75.50;61.00;;;;;3.34;67.42;99996.53;6310912;20;2879472;-44
2022/02/03 20:31:21;;;;;;;;;69.50;54.50;;;;;3.56;66.79;100003.00;6282802;20;2870205;-45
2022/02/03 20:33:51;;;;;;;;;76.33;54.00;;;;;3.58;66.45;100000.28;6280129;20;3641962;-46
2022/02/03 20:36:24;;;;;;;;;76.33;59.00;;;;;3.56;66.40;99997.72;6312305;20;2883734;-44
2022/02/03 20:38:54;;;;;;;;;65.00;48.00;;;;;3.62;66.08;99997.53;6310935;20;3643066;-46
2022/02/03 20:41:24;;;;;;;;;62.00;44.67;;;;;3.69;66.04;99999.09;6312125;20;2885070;-45
2022/02/03 20:43:53;;;;;;;;;50.67;36.67;;;;;3.74;66.16;99991.00;6308705;20;3636716;-46
2022/02/03 20:46:24;;;;;;;;;52.33;44.33;;;;;3.72;66.08;99984.88;6312971;20;2860792;-44
2022/02/03 20:48:53;;;;;;;;;59.50;47.00;;;;;3.67;66.49;99982.34;6313865;20;2858621;-44
2022/02/03 20:51:23;;;;;;;;;61.50;45.50;;;;;3.74;66.50;99978.59;6281463;20;2880483;-44
2022/02/03 20:53:52;;;;;;;;;53.00;41.00;;;;;3.90;65.49;99980.81;6281124;20;3615871;-46
2022/02/03 20:56:22;;;;;;;;;62.50;49.50;;;;;3.72;66.08;99974.25;6313665;20;2867995;-46
2022/02/03 20:58:51;;;;;;;;;63.00;44.67;;;;;3.67;66.52;99968.19;6282553;20;3643983;-44
2022/02/03 21:01:25;;;;;;;;;59.00;48.50;;;;;4.09;65.39;99968.69;6310133;20;2856509;-45
2022/02/03 21:04:01;;;;;;;;;44.00;41.50;;;;;4.09;65.26;99966.03;6279922;20;2873222;-45
2022/02/03 21:06:31;;;;;;;;;55.50;46.00;;;;;3.66;67.09;99966.44;6282350;20;2864823;-46
2022/02/03 21:09:00;;;;;;;;;60.67;48.33;;;;;3.74;66.94;99967.97;6281018;20;2879433;-46
2022/02/03 21:11:29;;;;;;;;;65.50;46.00;;;;;4.09;65.93;99966.03;6310579;20;2882524;-45
2022/02/03 21:14:01;;;;;;;;;51.50;43.50;;;;;4.27;64.87;99963.75;6279274;20;2859746;-47
2022/02/03 21:16:32;;;;;;;;;59.33;46.00;;;;;4.23;64.88;99967.41;6280693;20;2879563;-45
2022/02/03 21:19:01;;;;;;;;;63.67;48.67;;;;;4.17;65.43;99976.44;6313622;20;3615864;-45
2022/02/03 21:21:31;;;;;;;;;63.00;47.33;;;;;4.22;64.99;99968.34;6280499;20;2881579;-45
2022/02/03 21:23:59;;;;;;;;;47.00;43.00;;;;;4.39;64.80;99973.97;6311310;20;2855440;-47
2022/02/03 21:26:34;;;;;;;;;45.00;38.00;;;;;4.25;64.97;99960.25;6281078;20;2866912;-49
2022/02/03 21:29:05;;;;;;;;;49.00;41.00;;;;;4.04;64.85;99962.66;6280588;20;2859652;-48
2022/02/03 21:31:34;;;;;;;;;53.33;41.00;;;;;3.93;65.55;99968.28;6279587;20;2874319;-48
2022/02/03 21:34:09;;;;;;;;;48.33;40.33;;;;;4.37;64.25;99965.16;6311384;20;2869020;-44
2022/02/03 21:36:40;;;;;;;;;52.67;41.33;;;;;4.25;64.62;99957.59;6311979;20;2878494;-46
2022/02/03 21:39:10;;;;;;;;;47.33;41.00;;;;;4.16;64.85;99959.63;6310112;20;2857700;-44
2022/02/03 21:41:40;;;;;;;;;51.50;43.00;;;;;4.14;64.64;99958.81;6311177;20;2863868;-44
2022/02/03 21:44:14;;;;;;;;;53.00;40.33;;;;;4.27;65.16;99961.94;6276732;20;2873341;-44
2022/02/03 21:46:44;;;;;;;;;45.00;41.00;;;;;4.12;64.87;99965.94;6311426;20;2862783;-46
2022/02/03 21:49:15;;;;;;;;;53.00;40.33;;;;;4.26;64.63;99951.34;6279240;20;3638861;-45
2022/02/03 21:51:46;;;;;;;;;56.00;39.50;;;;;3.86;65.39;99957.91;6312123;20;2865030;-44
2022/02/03 21:54:15;;;;;;;;;44.00;36.50;;;;;3.91;65.85;99954.19;6278159;20;2858643;-46
2022/02/03 21:56:45;;;;;;;;;46.00;37.00;;;;;4.20;65.15;99956.88;6285919;20;3617048;-46
2022/02/03 21:59:15;;;;;;;;;47.33;36.67;;;;;4.13;65.06;99954.41;6315043;20;2864896;-47
2022/02/03 22:01:44;;;;;;;;;34.50;32.00;;;;;4.35;64.40;99943.09;6317459;20;2852355;-44
2022/02/03 22:04:13;;;;;;;;;46.33;37.00;;;;;4.21;64.62;99945.31;6285208;20;2881547;-45
2022/02/03 22:06:43;;;;;;;;;47.67;37.00;;;;;4.32;64.63;99932.56;6318094;20;3630515;-45
2022/02/03 22:09:12;;;;;;;;;35.50;27.50;;;;;4.24;64.81;99932.81;6316743;20;2866945;-49
2022/02/03 22:11:40;;;;;;;;;39.00;35.00;;;;;4.20;65.15;99935.63;6284612;20;2500300;-50
2022/02/03 22:14:08;;;;;;;;;56.00;41.00;;;;;3.89;66.31;99937.41;6284135;20;2874231;-47
2022/02/03 22:16:38;;;;;;;;;36.33;35.33;;;;;4.03;66.42;99930.81;6284067;20;2865075;-46
2022/02/03 22:19:08;;;;;;;;;41.67;33.33;;;;;4.02;65.63;99937.91;6315769;20;2862786;-48
2022/02/03 22:21:50;;;;;;;;;37.00;30.00;;;;;3.99;65.75;99939.81;6314498;20;2500390;-45
2022/02/03 22:24:27;;;;;;;;;38.00;33.00;;;;;4.11;65.18;99931.47;6281318;20;2500272;-45
2022/02/03 22:44:06;;;;;;;;;27.50;24.00;;;;;4.13;65.25;99911.91;6281108;20;2500300;-46
2022/02/03 22:46:41;;;;;;;;;21.50;15.50;;;;;4.25;64.62;99899.13;6284770;20;2811746;-44
2022/02/03 22:49:11;;;;;;;;;30.50;22.50;;;;;4.20;64.80;99911.69;6286347;20;2870080;-46
2022/02/03 22:51:41;;;;;;;;;25.00;23.00;;;;;4.08;64.71;99910.28;6283151;20;2500401;-47
2022/02/03 22:54:10;;;;;;;;;26.00;18.00;;;;;4.03;65.35;99907.78;6285273;20;3549180;-45
2022/02/03 22:56:39;;;;;;;;;27.00;20.00;;;;;4.11;64.96;99904.91;6283926;20;2825273;-45
2022/02/03 23:01:53;;;;;;;;;23.50;23.00;;;;;4.12;64.83;99891.53;6283332;20;2500487;-44
2022/02/03 23:04:21;;;;;;;;;28.00;20.00;;;;;4.12;64.92;99891.53;6280025;20;2496141;-45
2022/02/03 23:06:54;;;;;;;;;25.50;19.00;;;;;4.18;64.43;99887.81;6281980;20;2833593;-45
2022/02/03 23:10:11;;;;;;;;;23.33;20.33;;;;;4.27;64.15;99884.00;6283454;20;3562760;-45
2022/02/03 23:17:51;;;;;;;;;22.67;21.33;;;;;4.18;64.42;99878.06;6316097;20;3563292;-47
2022/02/03 23:20:46;;;;;;;;;28.33;22.00;;;;;4.12;63.95;99875.59;6314427;20;3563897;-48
2022/02/03 23:23:09;;;;;;;;;17.33;17.33;;;;;4.11;64.21;99873.88;6285987;20;3554594;-45
2022/02/03 23:25:42;;;;;;;;;23.67;19.00;;;;;4.20;64.13;99878.00;6314185;20;3552318;-45
2022/02/03 23:28:24;;;;;;;;;23.00;17.33;;;;;3.94;64.32;99871.75;6313998;20;3560644;-45
2022/02/03 23:30:52;;;;;;;;;19.67;16.00;;;;;4.18;63.98;99867.41;6314195;20;3556604;-46
2022/02/03 23:33:22;;;;;;;;;22.67;19.33;;;;;4.10;64.53;99869.47;6314001;20;3545050;-45
2022/02/03 23:35:51;;;;;;;;;29.00;21.00;;;;;4.01;64.50;99866.25;6283492;20;2844132;-46
